Darstellungsparameter: Aktuell verwendete Einstellungen:
Skalierung der Graphiken ... ?
xyx+y,   Skalierungsfaktor:      Skalierung: Modus: x, Faktor: 1
Darstellungszeitraum ... ?
Vom - - bis: - -   Zeitraum: 19.05.2016 - 19.05.2016
Min/Max/Avg-Anzeige ... ?
Zeige MMA aktuell
Zeige MMA Monat
Zeige MMA alles
Zeige --A aktuell
Zeige --A Monat
Zeige --A alles
Keine MMA-Anzeige
MMA:
Average (ber die Originaldaten)
MMA-Basis: 19.05.2016 - 19.05.2016
Quicknavigation für Darstellung... ?
Tage:      1T, 2T, 3T, 5T -1T -2T -3T -5T +1T +2T +3T +5T
Wochen: 1W, 2W, 3W -1W -2W -3W +1W +2W +3W
Monate: 1M, 3M, 6M -1M -3M -6M +1M +3M +6M
Jahre:    1J, 3J, 5J, 10J -1J -3J -5J -10J +1J +3J +5J +10J
Nutze für die Darstellung ... ?
Originaldaten oder Mittelwerte auf ...
Stundenbasis Tagesbasis Wochenbasis
Monatsbasis Jahresbasis      Datenbasis: Original-Daten
Darstellen als:
Statistik (Auto) Statistik J:M      Darstellung:
Zur Graphik,    zurück zur Übersicht aller Sensoren.
 
Tabellarische Datenbersicht: ?
 
Sensor: Nr:Datum:Temp:Abs-Feuchte:Windchill:Wind:
Aussen-T/F 1 19-05-2016 00:00:00 11.8 C 9.79 g/m*3 11.8 C 0 km/h
2 19-05-2016 00:05:00 11.8 C 9.79 g/m*3 11.8 C 0 km/h
3 19-05-2016 00:10:00 11.8 C 9.79 g/m*3 11.8 C 0 km/h
4 19-05-2016 00:15:00 11.8 C 9.79 g/m*3 11.8 C 0 km/h
5 19-05-2016 00:20:00 11.8 C 9.79 g/m*3 11.8 C 0 km/h
6 19-05-2016 00:25:00 11.7 C 9.73 g/m*3 11.7 C 0 km/h
7 19-05-2016 00:30:00 11.7 C 9.73 g/m*3 11.7 C 0 km/h
8 19-05-2016 00:35:00 11.7 C 9.83 g/m*3 11.7 C 0 km/h
9 19-05-2016 00:40:00 11.6 C 9.77 g/m*3 11.6 C 0 km/h
10 19-05-2016 00:45:00 11.6 C 9.67 g/m*3 11.6 C 0 km/h
11 19-05-2016 00:50:00 11.4 C 9.55 g/m*3 11.4 C 0 km/h
12 19-05-2016 00:55:00 11.3 C 9.49 g/m*3 11.3 C 0 km/h
13 19-05-2016 01:00:00 11.3 C 9.59 g/m*3 11.3 C 0 km/h
14 19-05-2016 01:05:00 11.3 C 9.59 g/m*3 11.3 C 0 km/h
15 19-05-2016 01:10:00 11.3 C 9.59 g/m*3 11.3 C 0 km/h
16 19-05-2016 01:15:00 11.3 C 9.59 g/m*3 11.3 C 0 km/h
17 19-05-2016 01:20:00 11.2 C 9.53 g/m*3 11.2 C 0 km/h
18 19-05-2016 01:25:00 11.2 C 9.53 g/m*3 11.2 C 0 km/h
19 19-05-2016 01:30:00 11.1 C 9.47 g/m*3 11.1 C 0 km/h
20 19-05-2016 01:35:00 11.1 C 9.47 g/m*3 11.1 C 0 km/h
21 19-05-2016 01:40:00 11.1 C 9.47 g/m*3 11.1 C 0 km/h
22 19-05-2016 01:45:00 11.2 C 9.53 g/m*3 11.2 C 0 km/h
23 19-05-2016 01:50:00 11.2 C 9.53 g/m*3 11.2 C 0 km/h
24 19-05-2016 01:55:00 11.2 C 9.53 g/m*3 11.2 C 0 km/h
25 19-05-2016 02:00:00 11.3 C 9.59 g/m*3 11.3 C 0 km/h
Sensor: Nr:Datum:Temp:Abs-Feuchte:Windchill:Wind:
Aussen-T/F 26 19-05-2016 02:05:00 11.3 C 9.69 g/m*3 11.3 C 0 km/h
27 19-05-2016 02:10:00 11.3 C 9.69 g/m*3 11.3 C 0 km/h
28 19-05-2016 02:15:00 11.3 C 9.69 g/m*3 11.3 C 0 km/h
29 19-05-2016 02:20:00 11.3 C 9.69 g/m*3 11.3 C 0 km/h
30 19-05-2016 02:25:00 11.3 C 9.69 g/m*3 11.3 C 0 km/h
31 19-05-2016 02:30:00 11.4 C 9.75 g/m*3 11.4 C 0 km/h
32 19-05-2016 02:35:00 11.4 C 9.75 g/m*3 11.4 C 0 km/h
33 19-05-2016 02:40:00 11.4 C 9.75 g/m*3 11.4 C 0 km/h
34 19-05-2016 02:45:00 11.4 C 9.75 g/m*3 11.4 C 0 km/h
35 19-05-2016 02:50:00 11.4 C 9.75 g/m*3 11.4 C 0 km/h
36 19-05-2016 02:55:00 11.4 C 9.75 g/m*3 11.4 C 0 km/h
37 19-05-2016 03:00:00 11.4 C 9.65 g/m*3 11.4 C 0 km/h
38 19-05-2016 03:05:00 11.3 C 9.59 g/m*3 11.3 C 1.6 km/h
39 19-05-2016 03:10:00 11.3 C 9.59 g/m*3 11.3 C 0 km/h
40 19-05-2016 03:15:00 11.3 C 9.59 g/m*3 11.3 C 0 km/h
41 19-05-2016 03:20:00 11.3 C 9.59 g/m*3 11.3 C 0 km/h
42 19-05-2016 03:25:00 11.3 C 9.59 g/m*3 11.3 C 0 km/h
43 19-05-2016 03:30:00 11.3 C 9.59 g/m*3 11.3 C 6.4 km/h
44 19-05-2016 03:35:00 11.3 C 9.59 g/m*3 11.3 C 6.4 km/h
45 19-05-2016 03:40:00 11.3 C 9.59 g/m*3 11.3 C 0 km/h
46 19-05-2016 03:45:00 11.3 C 9.59 g/m*3 11.3 C 1.6 km/h
47 19-05-2016 03:50:00 11.2 C 9.53 g/m*3 11.2 C 1.6 km/h
48 19-05-2016 03:55:00 11.2 C 9.53 g/m*3 11.2 C 1.6 km/h
49 19-05-2016 04:00:00 11.1 C 9.37 g/m*3 11.1 C 0 km/h
50 19-05-2016 04:05:00 11.1 C 9.37 g/m*3 11.1 C 0 km/h
Sensor: Nr:Datum:Temp:Abs-Feuchte:Windchill:Wind:
Aussen-T/F 51 19-05-2016 04:10:00 11 C 9.31 g/m*3 11 C 1.6 km/h
52 19-05-2016 04:15:00 11 C 9.31 g/m*3 11 C 1.6 km/h
53 19-05-2016 04:20:00 10.9 C 9.25 g/m*3 10.9 C 0 km/h
54 19-05-2016 04:25:00 10.9 C 9.25 g/m*3 10.9 C 0 km/h
55 19-05-2016 04:30:00 10.9 C 9.25 g/m*3 10.9 C 0 km/h
56 19-05-2016 04:35:00 10.9 C 9.25 g/m*3 10.9 C 0 km/h
57 19-05-2016 04:40:00 10.9 C 9.25 g/m*3 10.9 C 0 km/h
58 19-05-2016 04:45:00 10.9 C 9.25 g/m*3 10.9 C 0 km/h
59 19-05-2016 04:50:00 10.9 C 9.25 g/m*3 10.9 C 0 km/h
60 19-05-2016 04:55:00 10.9 C 9.25 g/m*3 10.9 C 0 km/h
61 19-05-2016 05:00:00 10.9 C 9.25 g/m*3 10.9 C 0 km/h
62 19-05-2016 05:05:00 10.9 C 9.25 g/m*3 10.9 C 0 km/h
63 19-05-2016 05:10:00 10.9 C 9.15 g/m*3 10.9 C 0 km/h
64 19-05-2016 05:15:00 10.9 C 9.25 g/m*3 10.9 C 0 km/h
65 19-05-2016 05:20:00 10.9 C 9.25 g/m*3 10.9 C 0 km/h
66 19-05-2016 05:25:00 10.8 C 9.19 g/m*3 10.8 C 1.6 km/h
67 19-05-2016 05:30:00 10.8 C 9.19 g/m*3 10.8 C 0 km/h
68 19-05-2016 05:35:00 10.8 C 9.19 g/m*3 10.8 C 0 km/h
69 19-05-2016 05:40:00 10.8 C 9.19 g/m*3 10.8 C 0 km/h
70 19-05-2016 05:45:00 10.7 C 9.13 g/m*3 10.7 C 0 km/h
71 19-05-2016 05:50:00 10.7 C 9.13 g/m*3 10.7 C 0 km/h
72 19-05-2016 05:55:00 10.7 C 9.13 g/m*3 10.7 C 0 km/h
73 19-05-2016 06:00:00 10.8 C 9.19 g/m*3 10.8 C 0 km/h
74 19-05-2016 06:05:00 10.8 C 9.19 g/m*3 10.8 C 0 km/h
75 19-05-2016 06:10:00 10.8 C 9.29 g/m*3 10.8 C 0 km/h
Sensor: Nr:Datum:Temp:Abs-Feuchte:Windchill:Wind:
Aussen-T/F 76 19-05-2016 06:15:00 10.8 C 9.29 g/m*3 10.8 C 0 km/h
77 19-05-2016 06:20:00 10.8 C 9.29 g/m*3 10.8 C 0 km/h
78 19-05-2016 06:25:00 10.9 C 9.35 g/m*3 10.9 C 0 km/h
79 19-05-2016 06:30:00 10.9 C 9.35 g/m*3 10.9 C 0 km/h
80 19-05-2016 06:35:00 10.9 C 9.35 g/m*3 10.9 C 0 km/h
81 19-05-2016 06:40:00 11 C 9.41 g/m*3 11 C 0 km/h
82 19-05-2016 06:45:00 11.1 C 9.57 g/m*3 11.1 C 0 km/h
83 19-05-2016 06:50:00 11.2 C 9.63 g/m*3 11.2 C 0 km/h
84 19-05-2016 06:55:00 11.2 C 9.63 g/m*3 11.2 C 0 km/h
85 19-05-2016 07:00:00 11.2 C 9.63 g/m*3 11.2 C 0 km/h
86 19-05-2016 07:05:00 11.3 C 9.59 g/m*3 11.3 C 3.2 km/h
87 19-05-2016 07:10:00 11.3 C 9.69 g/m*3 11.3 C 0 km/h
88 19-05-2016 07:15:00 11.3 C 9.69 g/m*3 11.3 C 1.6 km/h
89 19-05-2016 07:20:00 11.3 C 9.59 g/m*3 11.3 C 3.2 km/h
90 19-05-2016 07:25:00 11.3 C 9.59 g/m*3 11.3 C 9.7 km/h
91 19-05-2016 07:30:00 11.3 C 9.59 g/m*3 11.3 C 3.2 km/h
92 19-05-2016 07:35:00 11.4 C 9.65 g/m*3 11.4 C 8.1 km/h
93 19-05-2016 07:40:00 11.4 C 9.55 g/m*3 11.4 C 6.4 km/h
94 19-05-2016 07:45:00 11.4 C 9.55 g/m*3 11.4 C 1.6 km/h
95 19-05-2016 07:50:00 11.4 C 9.55 g/m*3 11.4 C 1.6 km/h
96 19-05-2016 07:55:00 11.4 C 9.55 g/m*3 11.4 C 0 km/h
97 19-05-2016 08:00:00 11.4 C 9.55 g/m*3 11.4 C 0 km/h
98 19-05-2016 08:05:00 11.5 C 9.61 g/m*3 11.5 C 0 km/h
99 19-05-2016 08:10:00 11.5 C 9.61 g/m*3 11.5 C 0 km/h
100 19-05-2016 08:15:00 11.6 C 9.67 g/m*3 11.6 C 0 km/h
Sensor: Nr:Datum:Temp:Abs-Feuchte:Windchill:Wind:
Aussen-T/F 101 19-05-2016 08:20:00 11.6 C 9.56 g/m*3 11.6 C 3.2 km/h
102 19-05-2016 08:25:00 11.7 C 9.62 g/m*3 11.7 C 3.2 km/h
103 19-05-2016 08:30:00 11.7 C 9.62 g/m*3 11.7 C 1.6 km/h
104 19-05-2016 08:35:00 11.7 C 9.62 g/m*3 11.7 C 4.8 km/h
105 19-05-2016 08:40:00 11.7 C 9.52 g/m*3 11.7 C 6.4 km/h
106 19-05-2016 08:45:00 11.8 C 9.58 g/m*3 11.8 C 4.8 km/h
107 19-05-2016 08:50:00 11.8 C 9.37 g/m*3 11.8 C 6.4 km/h
108 19-05-2016 08:55:00 11.8 C 9.26 g/m*3 11.8 C 6.4 km/h
109 19-05-2016 09:00:00 11.8 C 9.05 g/m*3 11.8 C 6.4 km/h
110 19-05-2016 09:05:00 11.9 C 9 g/m*3 11.9 C 6.4 km/h
111 19-05-2016 09:10:00 12.1 C 9.22 g/m*3 12.1 C 8.1 km/h
112 19-05-2016 09:15:00 12.2 C 9.39 g/m*3 12.2 C 6.4 km/h
113 19-05-2016 09:20:00 12.3 C 9.45 g/m*3 12.3 C 11.3 km/h
114 19-05-2016 09:25:00 12.3 C 9.23 g/m*3 12.3 C 11.3 km/h
115 19-05-2016 09:30:00 12.4 C 9.18 g/m*3 12.4 C 6.4 km/h
116 19-05-2016 09:35:00 12.6 C 9.29 g/m*3 12.6 C 8.1 km/h
117 19-05-2016 09:40:00 12.7 C 9.13 g/m*3 12.7 C 12.9 km/h
118 19-05-2016 09:45:00 12.9 C 9.24 g/m*3 12.9 C 9.7 km/h
119 19-05-2016 09:50:00 13.1 C 9.13 g/m*3 13.1 C 11.3 km/h
120 19-05-2016 09:55:00 13.2 C 8.84 g/m*3 13.2 C 12.9 km/h
121 19-05-2016 10:00:00 13.3 C 9.13 g/m*3 13.3 C 9.7 km/h
122 19-05-2016 10:05:00 13.4 C 9.3 g/m*3 13.4 C 8.1 km/h
123 19-05-2016 10:10:00 13.5 C 9.36 g/m*3 13.5 C 9.7 km/h
124 19-05-2016 10:15:00 13.6 C 8.94 g/m*3 13.6 C 11.3 km/h
125 19-05-2016 10:20:00 13.8 C 9.06 g/m*3 13.8 C 11.3 km/h
Sensor: Nr:Datum:Temp:Abs-Feuchte:Windchill:Wind:
Aussen-T/F 126 19-05-2016 10:25:00 13.8 C 8.82 g/m*3 13.8 C 12.9 km/h
127 19-05-2016 10:30:00 13.8 C 8.7 g/m*3 13.8 C 16.1 km/h
128 19-05-2016 10:35:00 13.8 C 8.82 g/m*3 13.8 C 8.1 km/h
129 19-05-2016 10:40:00 13.8 C 8.82 g/m*3 13.8 C 8.1 km/h
130 19-05-2016 10:45:00 13.9 C 8.87 g/m*3 13.9 C 9.7 km/h
131 19-05-2016 10:50:00 14 C 8.44 g/m*3 14 C 12.9 km/h
132 19-05-2016 10:55:00 14.1 C 8.62 g/m*3 14.1 C 11.3 km/h
133 19-05-2016 11:00:00 14.1 C 8.5 g/m*3 14.1 C 9.7 km/h
134 19-05-2016 11:05:00 14.2 C 8.67 g/m*3 14.2 C 11.3 km/h
135 19-05-2016 11:10:00 14.3 C 8.6 g/m*3 14.3 C 11.3 km/h
136 19-05-2016 11:15:00 14.3 C 8.72 g/m*3 14.3 C 14.5 km/h
137 19-05-2016 11:20:00 14.4 C 8.65 g/m*3 14.4 C 8.1 km/h
138 19-05-2016 11:25:00 14.7 C 8.69 g/m*3 14.7 C 12.9 km/h
139 19-05-2016 11:30:00 14.7 C 8.69 g/m*3 14.7 C 11.3 km/h
140 19-05-2016 11:35:00 14.7 C 8.56 g/m*3 14.7 C 8.1 km/h
141 19-05-2016 11:40:00 14.8 C 8.74 g/m*3 14.8 C 11.3 km/h
142 19-05-2016 11:45:00 15 C 8.85 g/m*3 15 C 14.5 km/h
143 19-05-2016 11:50:00 15.1 C 8.9 g/m*3 15.1 C 11.3 km/h
144 19-05-2016 11:55:00 15.1 C 8.77 g/m*3 15.1 C 9.7 km/h
145 19-05-2016 12:00:00 15.2 C 8.96 g/m*3 15.2 C 9.7 km/h
146 19-05-2016 12:05:00 15.3 C 8.62 g/m*3 15.3 C 12.9 km/h
147 19-05-2016 12:10:00 15.4 C 8.67 g/m*3 15.4 C 12.9 km/h
148 19-05-2016 12:15:00 15.5 C 8.59 g/m*3 15.5 C 9.7 km/h
149 19-05-2016 12:20:00 15.4 C 8.28 g/m*3 15.4 C 11.3 km/h
150 19-05-2016 12:25:00 15.4 C 8.28 g/m*3 15.4 C 9.7 km/h
Sensor: Nr:Datum:Temp:Abs-Feuchte:Windchill:Wind:
Aussen-T/F 151 19-05-2016 12:30:00 15.4 C 8.28 g/m*3 15.4 C 8.1 km/h
152 19-05-2016 12:35:00 15.5 C 8.46 g/m*3 15.5 C 6.4 km/h
153 19-05-2016 12:40:00 15.6 C 8.25 g/m*3 15.6 C 8.1 km/h
154 19-05-2016 12:45:00 15.7 C 8.43 g/m*3 15.7 C 6.4 km/h
155 19-05-2016 12:50:00 15.8 C 8.75 g/m*3 15.8 C 4.8 km/h
156 19-05-2016 12:55:00 15.9 C 8.26 g/m*3 15.9 C 12.9 km/h
157 19-05-2016 13:00:00 16.1 C 8.5 g/m*3 16.1 C 8.1 km/h
158 19-05-2016 13:05:00 16.2 C 8.41 g/m*3 16.2 C 4.8 km/h
159 19-05-2016 13:10:00 16.2 C 8.27 g/m*3 16.2 C 4.8 km/h
160 19-05-2016 13:15:00 16.3 C 8.19 g/m*3 16.3 C 3.2 km/h
161 19-05-2016 13:20:00 16.3 C 8.32 g/m*3 16.3 C 4.8 km/h
162 19-05-2016 13:25:00 16.4 C 8.23 g/m*3 16.4 C 8.1 km/h
163 19-05-2016 13:30:00 16.4 C 8.1 g/m*3 16.4 C 9.7 km/h
164 19-05-2016 13:35:00 16.5 C 8.28 g/m*3 16.5 C 6.4 km/h
165 19-05-2016 13:40:00 16.6 C 8.33 g/m*3 16.6 C 12.9 km/h
166 19-05-2016 13:45:00 16.6 C 8.33 g/m*3 16.6 C 9.7 km/h
167 19-05-2016 13:50:00 16.6 C 8.62 g/m*3 16.6 C 6.4 km/h
168 19-05-2016 13:55:00 16.7 C 8.95 g/m*3 16.7 C 4.8 km/h
169 19-05-2016 14:00:00 16.8 C 8.58 g/m*3 16.8 C 6.4 km/h
170 19-05-2016 14:05:00 16.9 C 8.49 g/m*3 16.9 C 8.1 km/h
171 19-05-2016 14:10:00 16.9 C 8.34 g/m*3 16.9 C 6.4 km/h
172 19-05-2016 14:15:00 17 C 8.54 g/m*3 17 C 1.6 km/h
173 19-05-2016 14:20:00 17.1 C 8.15 g/m*3 17.1 C 3.2 km/h
174 19-05-2016 14:25:00 17.1 C 8.01 g/m*3 17.1 C 4.8 km/h
175 19-05-2016 14:30:00 17.3 C 8.69 g/m*3 17.3 C 3.2 km/h
Sensor: Nr:Datum:Temp:Abs-Feuchte:Windchill:Wind:
Aussen-T/F 176 19-05-2016 14:35:00 17.4 C 8.15 g/m*3 17.4 C 3.2 km/h
177 19-05-2016 14:40:00 17.5 C 8.05 g/m*3 17.5 C 8.1 km/h
178 19-05-2016 14:45:00 17.8 C 8.65 g/m*3 17.8 C 6.4 km/h
179 19-05-2016 14:50:00 18.1 C 8.03 g/m*3 18.1 C 4.8 km/h
180 19-05-2016 14:55:00 18.1 C 8.19 g/m*3 18.1 C 6.4 km/h
181 19-05-2016 15:00:00 18.1 C 8.81 g/m*3 18.1 C 8.1 km/h
182 19-05-2016 15:05:00 17.8 C 8.2 g/m*3 17.8 C 8.1 km/h
183 19-05-2016 15:10:00 17.6 C 8.25 g/m*3 17.6 C 8.1 km/h
184 19-05-2016 15:15:00 17.4 C 8 g/m*3 17.4 C 6.4 km/h
185 19-05-2016 15:20:00 17.3 C 8.25 g/m*3 17.3 C 3.2 km/h
186 19-05-2016 15:25:00 17.3 C 8.54 g/m*3 17.3 C 0 km/h
187 19-05-2016 15:30:00 17.4 C 8.3 g/m*3 17.4 C 1.6 km/h
188 19-05-2016 15:35:00 17.4 C 7.85 g/m*3 17.4 C 3.2 km/h
189 19-05-2016 15:40:00 17.5 C 8.2 g/m*3 17.5 C 0 km/h
190 19-05-2016 15:45:00 17.6 C 8.7 g/m*3 17.6 C 3.2 km/h
191 19-05-2016 15:50:00 17.7 C 8 g/m*3 17.7 C 1.6 km/h
192 19-05-2016 15:55:00 17.8 C 8.04 g/m*3 17.8 C 3.2 km/h
193 19-05-2016 16:00:00 17.8 C 8.2 g/m*3 17.8 C 3.2 km/h
194 19-05-2016 16:05:00 17.9 C 8.09 g/m*3 17.9 C 4.8 km/h
195 19-05-2016 16:10:00 18.1 C 8.19 g/m*3 18.1 C 6.4 km/h
196 19-05-2016 16:15:00 18.2 C 8.08 g/m*3 18.2 C 6.4 km/h
197 19-05-2016 16:20:00 18.1 C 8.19 g/m*3 18.1 C 4.8 km/h
198 19-05-2016 16:25:00 18.2 C 8.24 g/m*3 18.2 C 4.8 km/h
199 19-05-2016 16:30:00 18.4 C 8.34 g/m*3 18.4 C 4.8 km/h
200 19-05-2016 16:35:00 18.7 C 7.84 g/m*3 18.7 C 4.8 km/h
Sensor: Nr:Datum:Temp:Abs-Feuchte:Windchill:Wind:
Aussen-T/F 201 19-05-2016 16:40:00 18.7 C 7.84 g/m*3 18.7 C 4.8 km/h
202 19-05-2016 16:45:00 19.1 C 8.52 g/m*3 19.1 C 6.4 km/h
203 19-05-2016 16:50:00 20 C 8.47 g/m*3 20 C 6.4 km/h
204 19-05-2016 16:55:00 20.2 C 8.04 g/m*3 20.2 C 6.4 km/h
205 19-05-2016 17:00:00 20.1 C 8 g/m*3 20.1 C 9.7 km/h
206 19-05-2016 17:05:00 19.4 C 7.84 g/m*3 19.4 C 6.4 km/h
207 19-05-2016 17:10:00 19.1 C 7.7 g/m*3 19.1 C 4.8 km/h
208 19-05-2016 17:15:00 18.8 C 7.89 g/m*3 18.8 C 6.4 km/h
209 19-05-2016 17:20:00 18.7 C 7.68 g/m*3 18.7 C 4.8 km/h
210 19-05-2016 17:25:00 18.5 C 7.75 g/m*3 18.5 C 1.6 km/h
211 19-05-2016 17:30:00 18.4 C 8.02 g/m*3 18.4 C 1.6 km/h
212 19-05-2016 17:35:00 18.4 C 7.71 g/m*3 18.4 C 4.8 km/h
213 19-05-2016 17:40:00 18.4 C 8.18 g/m*3 18.4 C 1.6 km/h
214 19-05-2016 17:45:00 18.3 C 8.91 g/m*3 18.3 C 0 km/h
215 19-05-2016 17:50:00 18.3 C 8.76 g/m*3 18.3 C 0 km/h
216 19-05-2016 17:55:00 18.4 C 9.91 g/m*3 18.4 C 0 km/h
217 19-05-2016 18:00:00 18.4 C 8.81 g/m*3 18.4 C 0 km/h
218 19-05-2016 18:05:00 18.5 C 7.75 g/m*3 18.5 C 0 km/h
219 19-05-2016 18:10:00 18.6 C 8.28 g/m*3 18.6 C 0 km/h
220 19-05-2016 18:15:00 18.7 C 9.93 g/m*3 18.7 C 0 km/h
221 19-05-2016 18:20:00 18.7 C 9.93 g/m*3 18.7 C 0 km/h
222 19-05-2016 18:25:00 19.1 C 8.36 g/m*3 19.1 C 3.2 km/h
223 19-05-2016 18:30:00 19.6 C 7.6 g/m*3 19.6 C 4.8 km/h
224 19-05-2016 18:35:00 19.6 C 7.77 g/m*3 19.6 C 4.8 km/h
225 19-05-2016 18:40:00 19.5 C 7.89 g/m*3 19.5 C 4.8 km/h
Sensor: Nr:Datum:Temp:Abs-Feuchte:Windchill:Wind:
Aussen-T/F 226 19-05-2016 18:45:00 19.7 C 7.81 g/m*3 19.7 C 4.8 km/h
227 19-05-2016 18:50:00 20.1 C 7.65 g/m*3 20.1 C 3.2 km/h
228 19-05-2016 18:55:00 20.1 C 7.65 g/m*3 20.1 C 6.4 km/h
229 19-05-2016 19:00:00 20.1 C 7.82 g/m*3 20.1 C 4.8 km/h
230 19-05-2016 19:05:00 20.2 C 7.52 g/m*3 20.2 C 4.8 km/h
231 19-05-2016 19:10:00 20.2 C 7.87 g/m*3 20.2 C 4.8 km/h
232 19-05-2016 19:15:00 20.2 C 7.87 g/m*3 20.2 C 4.8 km/h
233 19-05-2016 19:20:00 20.3 C 7.74 g/m*3 20.3 C 4.8 km/h
234 19-05-2016 19:25:00 20.3 C 7.74 g/m*3 20.3 C 4.8 km/h
235 19-05-2016 19:30:00 20.1 C 9.21 g/m*3 20.1 C 3.2 km/h
236 19-05-2016 19:35:00 19.7 C 7.98 g/m*3 19.7 C 4.8 km/h
237 19-05-2016 19:40:00 19.2 C 9.23 g/m*3 19.2 C 3.2 km/h
238 19-05-2016 19:45:00 18.6 C 9.55 g/m*3 18.6 C 3.2 km/h
239 19-05-2016 19:50:00 17.8 C 9.41 g/m*3 17.8 C 0 km/h
240 19-05-2016 19:55:00 17.3 C 9.28 g/m*3 17.3 C 1.6 km/h
241 19-05-2016 20:00:00 16.7 C 8.95 g/m*3 16.7 C 0 km/h
242 19-05-2016 20:05:00 16.3 C 9.02 g/m*3 16.3 C 0 km/h
243 19-05-2016 20:10:00 16.2 C 8.96 g/m*3 16.2 C 0 km/h
244 19-05-2016 20:15:00 15.9 C 8.94 g/m*3 15.9 C 1.6 km/h
245 19-05-2016 20:20:00 15.7 C 8.96 g/m*3 15.7 C 1.6 km/h
246 19-05-2016 20:25:00 15.4 C 8.93 g/m*3 15.4 C 1.6 km/h
247 19-05-2016 20:30:00 15.3 C 9.01 g/m*3 15.3 C 0 km/h
248 19-05-2016 20:35:00 15.2 C 8.96 g/m*3 15.2 C 0 km/h
249 19-05-2016 20:40:00 14.9 C 8.92 g/m*3 14.9 C 0 km/h
250 19-05-2016 20:45:00 14.7 C 8.69 g/m*3 14.7 C 1.6 km/h
Sensor: Nr:Datum:Temp:Abs-Feuchte:Windchill:Wind:
Aussen-T/F 251 19-05-2016 20:50:00 14.5 C 8.83 g/m*3 14.5 C 0 km/h
252 19-05-2016 20:55:00 14.3 C 8.72 g/m*3 14.3 C 0 km/h
253 19-05-2016 21:00:00 14.2 C 8.91 g/m*3 14.2 C 0 km/h
254 19-05-2016 21:05:00 13.9 C 8.75 g/m*3 13.9 C 1.6 km/h
255 19-05-2016 21:10:00 13.7 C 8.64 g/m*3 13.7 C 0 km/h
256 19-05-2016 21:15:00 13.6 C 8.71 g/m*3 13.6 C 0 km/h
257 19-05-2016 21:20:00 13.4 C 8.6 g/m*3 13.4 C 1.6 km/h
258 19-05-2016 21:25:00 13.3 C 8.66 g/m*3 13.3 C 0 km/h
259 19-05-2016 21:30:00 13.2 C 8.61 g/m*3 13.2 C 1.6 km/h
260 19-05-2016 21:35:00 13.1 C 8.67 g/m*3 13.1 C 0 km/h
261 19-05-2016 21:40:00 13 C 8.73 g/m*3 13 C 0 km/h
262 19-05-2016 21:45:00 12.9 C 8.68 g/m*3 12.9 C 0 km/h
263 19-05-2016 21:50:00 12.8 C 8.74 g/m*3 12.8 C 0 km/h
264 19-05-2016 21:55:00 12.7 C 8.68 g/m*3 12.7 C 0 km/h
265 19-05-2016 22:00:00 12.6 C 8.63 g/m*3 12.6 C 0 km/h
266 19-05-2016 22:05:00 12.4 C 8.63 g/m*3 12.4 C 0 km/h
267 19-05-2016 22:10:00 12.3 C 8.58 g/m*3 12.3 C 0 km/h
268 19-05-2016 22:15:00 12.3 C 8.69 g/m*3 12.3 C 0 km/h
269 19-05-2016 22:20:00 12.2 C 8.63 g/m*3 12.2 C 0 km/h
270 19-05-2016 22:25:00 12.1 C 8.58 g/m*3 12.1 C 0 km/h
271 19-05-2016 22:30:00 12.1 C 8.58 g/m*3 12.1 C 0 km/h
272 19-05-2016 22:35:00 12 C 8.63 g/m*3 12 C 0 km/h
273 19-05-2016 22:40:00 11.9 C 8.58 g/m*3 11.9 C 1.6 km/h
274 19-05-2016 22:45:00 11.9 C 8.58 g/m*3 11.9 C 0 km/h
275 19-05-2016 22:50:00 11.8 C 8.63 g/m*3 11.8 C 0 km/h
Sensor: Nr:Datum:Temp:Abs-Feuchte:Windchill:Wind:
Aussen-T/F 276 19-05-2016 22:55:00 11.8 C 8.63 g/m*3 11.8 C 0 km/h
277 19-05-2016 23:00:00 11.7 C 8.58 g/m*3 11.7 C 0 km/h
278 19-05-2016 23:05:00 11.7 C 8.68 g/m*3 11.7 C 0 km/h
279 19-05-2016 23:10:00 11.6 C 8.63 g/m*3 11.6 C 0 km/h
280 19-05-2016 23:15:00 11.5 C 8.57 g/m*3 11.5 C 0 km/h
281 19-05-2016 23:20:00 11.4 C 8.52 g/m*3 11.4 C 1.6 km/h
282 19-05-2016 23:25:00 11.4 C 8.62 g/m*3 11.4 C 0 km/h
283 19-05-2016 23:30:00 11.3 C 8.57 g/m*3 11.3 C 0 km/h
284 19-05-2016 23:35:00 11.3 C 8.57 g/m*3 11.3 C 1.6 km/h
285 19-05-2016 23:40:00 11.2 C 8.51 g/m*3 11.2 C 4.8 km/h
286 19-05-2016 23:45:00 11.2 C 8.62 g/m*3 11.2 C 0 km/h
287 19-05-2016 23:50:00 11.1 C 8.56 g/m*3 11.1 C 0 km/h
288 19-05-2016 23:55:00 11.1 C 8.56 g/m*3 11.1 C 0 km/h

Legende:
   Min
   Max


Maximal/Minimal-Werte vom 19.05.2016 - 19.05.2016

Sensor Min Max Avg
Temp
(Aussen-T/F)
10.7 °C
19-05-2016  05:45:00
20.3 °C
19-05-2016  19:20:00
14.05 °C
Abs-Feuchte
(Aussen-T/F)
7.52 g/m*3
19-05-2016  19:05:00
9.93 g/m*3
19-05-2016  18:15:00
8.87 g/m*3
Windchill
(Aussen-T/F)
10.7 C
19-05-2016  05:45:00
20.3 C
19-05-2016  19:20:00
14 C

Die Daten stammen von einer Davis Vantage Pro 2 Wetter-Station und werden unter Linux mit der Software wview2wettercgi und aufbereitet. Alle Angaben erfolgen ohne Gewähr für ihre Vollständigkeit oder Richtigkeit.
Kontakt: Rainer Krienke krienke@uni-koblenz.de . Meine Webseiten an der Uni Koblenz oder privat.
Version: $Revision: 0.78 $